YBRM Airport Information

Runway Information
Runway 10 Length 8064 ft width 148 ft
Elevation 56 ft Threshold 295 ft Heading 105
Runway 28 Length 8064 ft Width 148 ft
Elevation 22 ft Threshold 689 ft Heading 285
Airport Frequencies
Type ATIS Name ATIS Frequency 126.55 MHZ
Type CTAF Name CTAF Frequency 126 MHZ
Type FSS Name BRISBANE C Frequency 123.9 MHZ
Airport Navaids
Type NDB-DME Name Broome Frequency 320 KHZ
Airport Weather Information & NOTAM
ADDS - METARS form results

(0459 UTC 16 October 2021)
Data provider http://aviationweather.gov/metar/data/
 
METAR text: YBRM 160430Z AUTO 28013KT 9999 // NCD 33/17 Q1007 RF00.0/000.0
Conditions at: YBRM (BROOME AIRPORT , AU) observed 0430 UTC 16 October 2021
Temperature: 33.0°C (91°F)
Dewpoint: 17.0°C (63°F) [RH = 39%]
Pressure (altimeter): 29.73 inches Hg (1007.0 mb)
Winds: from the W (280 degrees) at 15 MPH (13 knots; 6.7 m/s)
Visibility: 6 or more miles (10+ km)
Ceiling: at least 12,000 feet AGL
Clouds: sky clear below 12,000 feet AGL
Weather: no significant weather observed at this time

METAR text: YBRM 160400Z AUTO 27011KT 9999 // NCD 33/15 Q1007
Conditions at: YBRM (BROOME AIRPORT , AU) observed 0400 UTC 16 October 2021
Temperature: 33.0°C (91°F)
Dewpoint: 15.0°C (59°F) [RH = 34%]
Pressure (altimeter): 29.73 inches Hg (1007.0 mb)
Winds: from the W (270 degrees) at 13 MPH (11 knots; 5.7 m/s)
Visibility: 6 or more miles (10+ km)
Ceiling: at least 12,000 feet AGL
Clouds: sky clear below 12,000 feet AGL
Weather: no significant weather observed at this time

Forecast for: YBRM (BROOME AIRPORT , AU)
Text: TAF YBRM 152309Z 1600/1700 17006KT CAVOK
Forecast period: 0000 to 0300 UTC 16 October 2021
Forecast type: FROM: standard forecast or significant change
Winds: from the S (170 degrees) at 7 MPH (6 knots; 3.1 m/s)
Visibility: 6 or more miles (10+ km)
Ceiling: unknown
Clouds: missing
Weather: NSW  (no significant weather)
Text: FM160300 28013KT CAVOK
Forecast period: 0300 to 1000 UTC 16 October 2021
Forecast type: FROM: standard forecast or significant change
Winds: from the W (280 degrees) at 15 MPH (13 knots; 6.7 m/s)
Visibility: 6 or more miles (10+ km)
Ceiling: unknown
Clouds: missing
Weather: NSW  (no significant weather)
Text: FM161000 27006KT CAVOK
Forecast period: 1000 to 1900 UTC 16 October 2021
Forecast type: FROM: standard forecast or significant change
Winds: from the W (270 degrees) at 7 MPH (6 knots; 3.1 m/s)
Visibility: 6 or more miles (10+ km)
Ceiling: unknown
Clouds: missing
Weather: NSW  (no significant weather)
Text: FM161900 23005KT CAVOK
Forecast period: 1900 UTC 16 October 2021 to 0000 UTC 17 October 2021
Forecast type: FROM: standard forecast or significant change
Winds: from the SW (230 degrees) at 6 MPH (5 knots; 2.6 m/s)
Visibility: 6 or more miles (10+ km)
Ceiling: unknown
Clouds: missing
Weather: NSW  (no significant weather)